sensor_id;sensor_type;location;lat;lon;timestamp;pressure;altitude;pressure_sealevel;temperature;humidity
69223;BME280;56514;51.816;-0.026;2022-11-23T00:00:11;98811.81;;;5.81;76.28
69223;BME280;56514;51.816;-0.026;2022-11-23T00:03:15;98816.34;;;5.79;75.97
69223;BME280;56514;51.816;-0.026;2022-11-23T00:06:20;98819.31;;;5.74;76.18
69223;BME280;56514;51.816;-0.026;2022-11-23T00:09:25;98822.88;;;5.73;76.22
69223;BME280;56514;51.816;-0.026;2022-11-23T00:12:34;98813.50;;;5.71;76.17
69223;BME280;56514;51.816;-0.026;2022-11-23T00:15:43;98816.34;;;5.68;76.69
69223;BME280;56514;51.816;-0.026;2022-11-23T00:18:56;98817.44;;;5.65;76.16
69223;BME280;56514;51.816;-0.026;2022-11-23T00:22:06;98805.53;;;5.61;76.37
69223;BME280;56514;51.816;-0.026;2022-11-23T00:25:15;98805.63;;;5.60;76.13
69223;BME280;56514;51.816;-0.026;2022-11-23T00:28:24;98794.59;;;5.56;76.45
69223;BME280;56514;51.816;-0.026;2022-11-23T00:31:11;98794.72;;;5.55;76.29
69223;BME280;56514;51.816;-0.026;2022-11-23T00:33:57;98802.47;;;5.56;76.41
69223;BME280;56514;51.816;-0.026;2022-11-23T00:36:43;98786.75;;;5.56;76.46
69223;BME280;56514;51.816;-0.026;2022-11-23T00:39:27;98781.53;;;5.56;76.45
69223;BME280;56514;51.816;-0.026;2022-11-23T00:42:15;98785.81;;;5.57;76.42
69223;BME280;56514;51.816;-0.026;2022-11-23T00:45:00;98790.19;;;5.57;76.87
69223;BME280;56514;51.816;-0.026;2022-11-23T00:47:45;98786.66;;;5.58;76.71
69223;BME280;56514;51.816;-0.026;2022-11-23T00:50:29;98779.59;;;5.58;76.45
69223;BME280;56514;51.816;-0.026;2022-11-23T00:53:14;98784.84;;;5.58;76.83
69223;BME280;56514;51.816;-0.026;2022-11-23T00:55:59;98784.84;;;5.58;76.65
69223;BME280;56514;51.816;-0.026;2022-11-23T00:58:51;98781.06;;;5.62;76.62
69223;BME280;56514;51.816;-0.026;2022-11-23T01:01:36;98783.44;;;5.65;76.87
69223;BME280;56514;51.816;-0.026;2022-11-23T01:04:21;98779.59;;;5.69;76.74
69223;BME280;56514;51.816;-0.026;2022-11-23T01:07:06;98779.50;;;5.71;76.80
69223;BME280;56514;51.816;-0.026;2022-11-23T01:09:50;98784.59;;;5.72;76.63
69223;BME280;56514;51.816;-0.026;2022-11-23T01:12:35;98782.09;;;5.71;76.72
69223;BME280;56514;51.816;-0.026;2022-11-23T01:15:20;98780.22;;;5.73;76.77
69223;BME280;56514;51.816;-0.026;2022-11-23T01:18:04;98776.38;;;5.77;76.81
69223;BME280;56514;51.816;-0.026;2022-11-23T01:20:53;98771.16;;;5.77;76.81
69223;BME280;56514;51.816;-0.026;2022-11-23T01:23:38;98778.03;;;5.78;76.71
69223;BME280;56514;51.816;-0.026;2022-11-23T01:26:23;98765.91;;;5.77;76.87
69223;BME280;56514;51.816;-0.026;2022-11-23T01:29:09;98774.97;;;5.84;77.09
69223;BME280;56514;51.816;-0.026;2022-11-23T01:31:53;98771.66;;;5.93;76.85
69223;BME280;56514;51.816;-0.026;2022-11-23T01:34:38;98773.66;;;6.00;77.18
69223;BME280;56514;51.816;-0.026;2022-11-23T01:37:23;98766.13;;;6.07;77.06
69223;BME280;56514;51.816;-0.026;2022-11-23T01:40:09;98769.06;;;6.13;76.62
69223;BME280;56514;51.816;-0.026;2022-11-23T01:42:56;98767.06;;;6.17;76.83
69223;BME280;56514;51.816;-0.026;2022-11-23T01:46:02;98763.09;;;6.22;76.37
69223;BME280;56514;51.816;-0.026;2022-11-23T01:51:47;98747.34;;;6.33;76.18
69223;BME280;56514;51.816;-0.026;2022-11-23T01:54:39;98748.13;;;6.45;76.39
69223;BME280;56514;51.816;-0.026;2022-11-23T01:57:31;98745.44;;;6.56;76.41
69223;BME280;56514;51.816;-0.026;2022-11-23T02:00:20;98732.56;;;6.64;75.94
69223;BME280;56514;51.816;-0.026;2022-11-23T02:03:05;98732.31;;;6.67;76.19
69223;BME280;56514;51.816;-0.026;2022-11-23T02:05:55;98732.97;;;6.69;76.11
69223;BME280;56514;51.816;-0.026;2022-11-23T02:08:46;98731.19;;;6.69;75.80
69223;BME280;56514;51.816;-0.026;2022-11-23T02:11:32;98726.09;;;6.68;76.01
69223;BME280;56514;51.816;-0.026;2022-11-23T02:14:17;98723.72;;;6.65;75.79
69223;BME280;56514;51.816;-0.026;2022-11-23T02:17:03;98716.25;;;6.60;75.60
69223;BME280;56514;51.816;-0.026;2022-11-23T02:20:07;98716.63;;;6.56;75.88
69223;BME280;56514;51.816;-0.026;2022-11-23T02:26:06;98713.94;;;6.46;76.03
69223;BME280;56514;51.816;-0.026;2022-11-23T02:32:00;98697.22;;;6.38;76.13
69223;BME280;56514;51.816;-0.026;2022-11-23T02:34:45;98690.72;;;6.32;76.14
69223;BME280;56514;51.816;-0.026;2022-11-23T02:37:30;98687.78;;;6.26;75.83
69223;BME280;56514;51.816;-0.026;2022-11-23T02:40:22;98667.59;;;6.17;76.08
69223;BME280;56514;51.816;-0.026;2022-11-23T02:43:09;98668.34;;;6.08;75.65
69223;BME280;56514;51.816;-0.026;2022-11-23T02:46:02;98672.41;;;6.01;75.94
69223;BME280;56514;51.816;-0.026;2022-11-23T02:48:48;98667.00;;;5.93;76.02
69223;BME280;56514;51.816;-0.026;2022-11-23T02:51:33;98659.84;;;5.84;76.10
69223;BME280;56514;51.816;-0.026;2022-11-23T02:54:18;98664.03;;;5.75;76.35
69223;BME280;56514;51.816;-0.026;2022-11-23T02:57:04;98660.38;;;5.67;76.04
69223;BME280;56514;51.816;-0.026;2022-11-23T02:59:49;98657.53;;;5.59;76.43
69223;BME280;56514;51.816;-0.026;2022-11-23T03:02:33;98652.81;;;5.53;76.31
69223;BME280;56514;51.816;-0.026;2022-11-23T03:05:18;98649.13;;;5.44;76.69
69223;BME280;56514;51.816;-0.026;2022-11-23T03:08:03;98652.09;;;5.39;76.65
69223;BME280;56514;51.816;-0.026;2022-11-23T03:10:48;98647.13;;;5.36;76.72
69223;BME280;56514;51.816;-0.026;2022-11-23T03:13:33;98630.63;;;5.36;76.82
69223;BME280;56514;51.816;-0.026;2022-11-23T03:16:18;98631.19;;;5.39;77.09
69223;BME280;56514;51.816;-0.026;2022-11-23T03:19:03;98630.13;;;5.42;76.79
69223;BME280;56514;51.816;-0.026;2022-11-23T03:21:48;98627.66;;;5.40;76.60
69223;BME280;56514;51.816;-0.026;2022-11-23T03:24:33;98617.44;;;5.37;76.53
69223;BME280;56514;51.816;-0.026;2022-11-23T03:27:18;98616.84;;;5.34;76.41
69223;BME280;56514;51.816;-0.026;2022-11-23T03:30:04;98615.56;;;5.28;76.95
69223;BME280;56514;51.816;-0.026;2022-11-23T03:32:49;98612.22;;;5.26;76.72
69223;BME280;56514;51.816;-0.026;2022-11-23T03:35:34;98610.59;;;5.25;77.08
69223;BME280;56514;51.816;-0.026;2022-11-23T03:38:19;98602.94;;;5.33;77.07
69223;BME280;56514;51.816;-0.026;2022-11-23T03:41:04;98614.09;;;5.47;76.93
69223;BME280;56514;51.816;-0.026;2022-11-23T03:43:49;98600.03;;;5.59;76.92
69223;BME280;56514;51.816;-0.026;2022-11-23T03:46:33;98605.91;;;5.72;76.95
69223;BME280;56514;51.816;-0.026;2022-11-23T03:49:18;98600.53;;;5.84;76.89
69223;BME280;56514;51.816;-0.026;2022-11-23T03:52:03;98601.44;;;5.94;77.08
69223;BME280;56514;51.816;-0.026;2022-11-23T03:54:48;98596.25;;;6.04;76.54
69223;BME280;56514;51.816;-0.026;2022-11-23T03:57:33;98593.00;;;6.11;76.43
69223;BME280;56514;51.816;-0.026;2022-11-23T04:00:17;98592.50;;;6.17;76.57
69223;BME280;56514;51.816;-0.026;2022-11-23T04:03:02;98583.56;;;6.20;76.67
69223;BME280;56514;51.816;-0.026;2022-11-23T04:05:47;98582.59;;;6.21;76.06
69223;BME280;56514;51.816;-0.026;2022-11-23T04:08:32;98575.97;;;6.17;76.31
69223;BME280;56514;51.816;-0.026;2022-11-23T04:11:20;98580.63;;;6.13;76.07
69223;BME280;56514;51.816;-0.026;2022-11-23T04:14:05;98578.66;;;6.06;76.14
69223;BME280;56514;51.816;-0.026;2022-11-23T04:16:50;98580.25;;;5.97;76.36
69223;BME280;56514;51.816;-0.026;2022-11-23T04:19:35;98575.22;;;5.85;75.98
69223;BME280;56514;51.816;-0.026;2022-11-23T04:22:19;98568.59;;;5.70;76.28
69223;BME280;56514;51.816;-0.026;2022-11-23T04:25:05;98563.53;;;5.57;76.05
69223;BME280;56514;51.816;-0.026;2022-11-23T04:27:50;98570.69;;;5.44;76.39
69223;BME280;56514;51.816;-0.026;2022-11-23T04:30:34;98564.56;;;5.34;76.21
69223;BME280;56514;51.816;-0.026;2022-11-23T04:33:19;98557.34;;;5.26;76.62
69223;BME280;56514;51.816;-0.026;2022-11-23T04:36:04;98558.22;;;5.16;76.58
69223;BME280;56514;51.816;-0.026;2022-11-23T04:38:49;98553.59;;;5.08;76.77
69223;BME280;56514;51.816;-0.026;2022-11-23T04:41:34;98544.69;;;5.00;76.54
69223;BME280;56514;51.816;-0.026;2022-11-23T04:44:19;98547.00;;;4.93;76.79
69223;BME280;56514;51.816;-0.026;2022-11-23T04:47:04;98544.63;;;4.90;76.89
69223;BME280;56514;51.816;-0.026;2022-11-23T04:49:50;98532.88;;;4.85;77.07
69223;BME280;56514;51.816;-0.026;2022-11-23T04:52:34;98522.78;;;4.80;77.14
69223;BME280;56514;51.816;-0.026;2022-11-23T04:55:19;98530.75;;;4.79;76.79
69223;BME280;56514;51.816;-0.026;2022-11-23T04:58:04;98525.16;;;4.83;77.18
69223;BME280;56514;51.816;-0.026;2022-11-23T05:00:48;98509.69;;;4.91;77.21
69223;BME280;56514;51.816;-0.026;2022-11-23T05:03:33;98518.69;;;4.98;77.15
69223;BME280;56514;51.816;-0.026;2022-11-23T05:06:18;98509.81;;;5.01;77.57
69223;BME280;56514;51.816;-0.026;2022-11-23T05:09:03;98522.75;;;5.02;77.17
69223;BME280;56514;51.816;-0.026;2022-11-23T05:11:48;98524.38;;;5.03;77.07
69223;BME280;56514;51.816;-0.026;2022-11-23T05:14:33;98514.97;;;5.12;77.17
69223;BME280;56514;51.816;-0.026;2022-11-23T05:17:18;98511.41;;;5.24;77.32
69223;BME280;56514;51.816;-0.026;2022-11-23T05:20:03;98505.41;;;5.33;76.97
69223;BME280;56514;51.816;-0.026;2022-11-23T05:22:48;98504.91;;;5.39;77.21
69223;BME280;56514;51.816;-0.026;2022-11-23T05:25:33;98501.34;;;5.40;77.09
69223;BME280;56514;51.816;-0.026;2022-11-23T05:28:19;98502.97;;;5.41;77.29
69223;BME280;56514;51.816;-0.026;2022-11-23T05:31:05;98500.38;;;5.41;77.43
69223;BME280;56514;51.816;-0.026;2022-11-23T05:33:50;98502.59;;;5.45;77.54
69223;BME280;56514;51.816;-0.026;2022-11-23T05:36:35;98502.59;;;5.45;77.38
69223;BME280;56514;51.816;-0.026;2022-11-23T05:39:19;98491.22;;;5.47;77.94
69223;BME280;56514;51.816;-0.026;2022-11-23T05:42:05;98484.03;;;5.48;78.22
69223;BME280;56514;51.816;-0.026;2022-11-23T05:44:50;98481.44;;;5.48;77.78
69223;BME280;56514;51.816;-0.026;2022-11-23T05:47:35;98476.19;;;5.48;77.98
69223;BME280;56514;51.816;-0.026;2022-11-23T05:50:21;98476.91;;;5.51;78.12
69223;BME280;56514;51.816;-0.026;2022-11-23T05:53:07;98472.41;;;5.53;78.14
69223;BME280;56514;51.816;-0.026;2022-11-23T05:55:57;98464.31;;;5.56;78.51
69223;BME280;56514;51.816;-0.026;2022-11-23T05:58:42;98463.06;;;5.60;78.47
69223;BME280;56514;51.816;-0.026;2022-11-23T06:01:27;98466.41;;;5.62;78.47
69223;BME280;56514;51.816;-0.026;2022-11-23T06:04:12;98462.69;;;5.64;78.05
69223;BME280;56514;51.816;-0.026;2022-11-23T06:06:57;98463.41;;;5.66;78.32
69223;BME280;56514;51.816;-0.026;2022-11-23T06:09:44;98448.41;;;5.68;78.08
69223;BME280;56514;51.816;-0.026;2022-11-23T06:12:29;98446.34;;;5.72;78.52
69223;BME280;56514;51.816;-0.026;2022-11-23T06:15:14;98436.59;;;5.74;78.43
69223;BME280;56514;51.816;-0.026;2022-11-23T06:18:01;98432.09;;;5.76;78.50
69223;BME280;56514;51.816;-0.026;2022-11-23T06:20:46;98424.91;;;5.78;78.69
69223;BME280;56514;51.816;-0.026;2022-11-23T06:23:31;98409.94;;;5.80;78.53
69223;BME280;56514;51.816;-0.026;2022-11-23T06:26:16;98403.63;;;5.82;78.23
69223;BME280;56514;51.816;-0.026;2022-11-23T06:29:01;98392.91;;;5.85;78.37
69223;BME280;56514;51.816;-0.026;2022-11-23T06:31:46;98397.38;;;5.94;78.78
69223;BME280;56514;51.816;-0.026;2022-11-23T06:34:31;98391.63;;;6.00;78.71
69223;BME280;56514;51.816;-0.026;2022-11-23T06:37:15;98384.03;;;6.07;78.86
69223;BME280;56514;51.816;-0.026;2022-11-23T06:40:00;98373.75;;;6.15;78.89
69223;BME280;56514;51.816;-0.026;2022-11-23T06:42:45;98367.97;;;6.21;78.67
69223;BME280;56514;51.816;-0.026;2022-11-23T06:45:30;98362.06;;;6.28;79.11
69223;BME280;56514;51.816;-0.026;2022-11-23T06:48:16;98362.94;;;6.38;79.04
69223;BME280;56514;51.816;-0.026;2022-11-23T06:51:01;98354.13;;;6.49;79.01
69223;BME280;56514;51.816;-0.026;2022-11-23T06:53:46;98348.19;;;6.66;79.25
69223;BME280;56514;51.816;-0.026;2022-11-23T06:56:30;98336.75;;;6.86;79.28
69223;BME280;56514;51.816;-0.026;2022-11-23T06:59:15;98331.34;;;7.06;79.61
69223;BME280;56514;51.816;-0.026;2022-11-23T07:02:00;98326.34;;;7.22;79.36
69223;BME280;56514;51.816;-0.026;2022-11-23T07:04:44;98315.28;;;7.38;79.38
69223;BME280;56514;51.816;-0.026;2022-11-23T07:07:30;98308.88;;;7.50;79.16
69223;BME280;56514;51.816;-0.026;2022-11-23T07:10:15;98303.31;;;7.63;79.29
69223;BME280;56514;51.816;-0.026;2022-11-23T07:13:04;98297.91;;;7.74;79.25
69223;BME280;56514;51.816;-0.026;2022-11-23T07:15:49;98298.50;;;7.85;79.04
69223;BME280;56514;51.816;-0.026;2022-11-23T07:18:34;98296.69;;;7.95;79.12
69223;BME280;56514;51.816;-0.026;2022-11-23T07:21:19;98294.81;;;8.05;79.04
69223;BME280;56514;51.816;-0.026;2022-11-23T07:24:04;98292.28;;;8.13;78.93
69223;BME280;56514;51.816;-0.026;2022-11-23T07:26:49;98294.72;;;8.24;78.75
69223;BME280;56514;51.816;-0.026;2022-11-23T07:29:34;98299.09;;;8.33;78.87
69223;BME280;56514;51.816;-0.026;2022-11-23T07:32:18;98299.00;;;8.43;78.49
69223;BME280;56514;51.816;-0.026;2022-11-23T07:35:03;98290.06;;;8.53;78.56
69223;BME280;56514;51.816;-0.026;2022-11-23T07:37:48;98292.25;;;8.58;78.70
69223;BME280;56514;51.816;-0.026;2022-11-23T07:40:37;98294.97;;;8.66;78.49
69223;BME280;56514;51.816;-0.026;2022-11-23T07:43:46;98283.03;;;8.71;78.42
69223;BME280;56514;51.816;-0.026;2022-11-23T07:46:31;98275.50;;;8.76;77.96
69223;BME280;56514;51.816;-0.026;2022-11-23T07:49:16;98272.41;;;8.81;78.37
69223;BME280;56514;51.816;-0.026;2022-11-23T07:52:00;98256.03;;;8.87;77.78
69223;BME280;56514;51.816;-0.026;2022-11-23T07:54:45;98253.94;;;8.90;78.05
69223;BME280;56514;51.816;-0.026;2022-11-23T07:57:30;98258.72;;;8.95;78.35
69223;BME280;56514;51.816;-0.026;2022-11-23T08:00:15;98239.19;;;8.98;78.24
69223;BME280;56514;51.816;-0.026;2022-11-23T08:03:00;98242.88;;;9.05;78.28
69223;BME280;56514;51.816;-0.026;2022-11-23T08:05:44;98234.50;;;9.09;78.58
69223;BME280;56514;51.816;-0.026;2022-11-23T08:08:29;98226.16;;;9.14;78.54
69223;BME280;56514;51.816;-0.026;2022-11-23T08:11:14;98219.59;;;9.18;78.55
69223;BME280;56514;51.816;-0.026;2022-11-23T08:14:02;98208.44;;;9.24;78.87
69223;BME280;56514;51.816;-0.026;2022-11-23T08:16:48;98209.13;;;9.26;78.92
69223;BME280;56514;51.816;-0.026;2022-11-23T08:19:34;98188.75;;;9.28;78.84
69223;BME280;56514;51.816;-0.026;2022-11-23T08:22:19;98184.16;;;9.30;78.71
69223;BME280;56514;51.816;-0.026;2022-11-23T08:25:04;98196.03;;;9.34;78.90
69223;BME280;56514;51.816;-0.026;2022-11-23T08:30:40;98174.34;;;9.40;79.15
69223;BME280;56514;51.816;-0.026;2022-11-23T08:33:27;98178.81;;;9.47;78.91
69223;BME280;56514;51.816;-0.026;2022-11-23T08:36:12;98168.13;;;9.49;79.30
69223;BME280;56514;51.816;-0.026;2022-11-23T08:38:57;98165.84;;;9.54;79.59
69223;BME280;56514;51.816;-0.026;2022-11-23T08:41:42;98169.63;;;9.59;79.63
69223;BME280;56514;51.816;-0.026;2022-11-23T08:44:27;98160.09;;;9.66;79.44
69223;BME280;56514;51.816;-0.026;2022-11-23T08:47:12;98156.66;;;9.74;79.67
69223;BME280;56514;51.816;-0.026;2022-11-23T08:49:57;98135.13;;;9.78;79.55
69223;BME280;56514;51.816;-0.026;2022-11-23T08:52:42;98137.13;;;9.84;79.46
69223;BME280;56514;51.816;-0.026;2022-11-23T08:55:27;98123.16;;;9.92;79.81
69223;BME280;56514;51.816;-0.026;2022-11-23T08:58:12;98118.88;;;9.99;80.15
69223;BME280;56514;51.816;-0.026;2022-11-23T09:00:57;98103.13;;;10.07;80.17
69223;BME280;56514;51.816;-0.026;2022-11-23T09:03:43;98100.31;;;10.16;80.32
69223;BME280;56514;51.816;-0.026;2022-11-23T09:06:28;98091.56;;;10.24;80.09
69223;BME280;56514;51.816;-0.026;2022-11-23T09:09:16;98082.88;;;10.31;80.23
69223;BME280;56514;51.816;-0.026;2022-11-23T09:12:00;98079.41;;;10.39;79.80
69223;BME280;56514;51.816;-0.026;2022-11-23T09:14:45;98070.81;;;10.45;80.18
69223;BME280;56514;51.816;-0.026;2022-11-23T09:17:31;98073.41;;;10.53;79.93
69223;BME280;56514;51.816;-0.026;2022-11-23T09:20:16;98068.66;;;10.56;80.11
69223;BME280;56514;51.816;-0.026;2022-11-23T09:23:01;98067.13;;;10.62;80.40
69223;BME280;56514;51.816;-0.026;2022-11-23T09:25:45;98055.13;;;10.68;80.48
69223;BME280;56514;51.816;-0.026;2022-11-23T09:28:33;98068.78;;;10.71;80.43
69223;BME280;56514;51.816;-0.026;2022-11-23T09:31:18;98098.09;;;10.76;80.68
69223;BME280;56514;51.816;-0.026;2022-11-23T09:34:03;98096.94;;;10.79;80.98
69223;BME280;56514;51.816;-0.026;2022-11-23T09:36:48;98085.06;;;10.83;81.01
69223;BME280;56514;51.816;-0.026;2022-11-23T09:39:33;98087.00;;;10.89;80.80
69223;BME280;56514;51.816;-0.026;2022-11-23T09:42:54;98092.44;;;10.95;80.72
69223;BME280;56514;51.816;-0.026;2022-11-23T09:45:49;98099.84;;;11.00;80.57
69223;BME280;56514;51.816;-0.026;2022-11-23T09:51:57;98158.63;;;11.16;80.73
69223;BME280;56514;51.816;-0.026;2022-11-23T09:54:45;98155.50;;;11.21;80.30
69223;BME280;56514;51.816;-0.026;2022-11-23T09:57:33;98199.22;;;11.15;81.03
69223;BME280;56514;51.816;-0.026;2022-11-23T10:00:21;98173.81;;;11.14;81.25
69223;BME280;56514;51.816;-0.026;2022-11-23T10:03:13;98173.59;;;11.32;81.01
69223;BME280;56514;51.816;-0.026;2022-11-23T10:06:20;98188.22;;;11.50;80.26
69223;BME280;56514;51.816;-0.026;2022-11-23T10:12:23;98204.34;;;11.63;77.82
69223;BME280;56514;51.816;-0.026;2022-11-23T10:15:13;98213.56;;;11.67;77.27
69223;BME280;56514;51.816;-0.026;2022-11-23T10:18:13;98220.59;;;11.83;75.56
69223;BME280;56514;51.816;-0.026;2022-11-23T10:21:16;98221.84;;;11.95;74.98
69223;BME280;56514;51.816;-0.026;2022-11-23T10:24:12;98214.63;;;11.89;74.63
69223;BME280;56514;51.816;-0.026;2022-11-23T10:27:02;98230.44;;;11.97;74.17
69223;BME280;56514;51.816;-0.026;2022-11-23T10:29:50;98236.22;;;11.92;74.92
69223;BME280;56514;51.816;-0.026;2022-11-23T10:32:48;98235.19;;;12.01;74.55
69223;BME280;56514;51.816;-0.026;2022-11-23T10:35:34;98244.72;;;12.10;73.92
69223;BME280;56514;51.816;-0.026;2022-11-23T10:38:25;98246.44;;;11.95;75.20
69223;BME280;56514;51.816;-0.026;2022-11-23T10:41:12;98243.53;;;12.13;74.20
69223;BME280;56514;51.816;-0.026;2022-11-23T10:46:45;98254.25;;;12.19;74.14
69223;BME280;56514;51.816;-0.026;2022-11-23T10:49:32;98265.25;;;12.31;74.48
69223;BME280;56514;51.816;-0.026;2022-11-23T10:52:29;98280.69;;;12.42;73.97
69223;BME280;56514;51.816;-0.026;2022-11-23T10:55:16;98295.50;;;12.51;73.00
69223;BME280;56514;51.816;-0.026;2022-11-23T10:58:02;98300.69;;;12.45;73.09
69223;BME280;56514;51.816;-0.026;2022-11-23T11:00:58;98314.69;;;12.53;71.58
69223;BME280;56514;51.816;-0.026;2022-11-23T11:03:43;98316.44;;;12.61;70.48
69223;BME280;56514;51.816;-0.026;2022-11-23T11:06:31;98322.53;;;12.69;68.46
69223;BME280;56514;51.816;-0.026;2022-11-23T11:09:19;98330.84;;;12.58;69.09
69223;BME280;56514;51.816;-0.026;2022-11-23T11:12:04;98336.94;;;12.59;68.24
69223;BME280;56514;51.816;-0.026;2022-11-23T11:15:18;98344.88;;;12.59;68.38
69223;BME280;56514;51.816;-0.026;2022-11-23T11:18:03;98351.69;;;12.53;68.70
69223;BME280;56514;51.816;-0.026;2022-11-23T11:20:55;98359.94;;;12.58;67.42
69223;BME280;56514;51.816;-0.026;2022-11-23T11:23:41;98372.59;;;12.71;66.18
69223;BME280;56514;51.816;-0.026;2022-11-23T11:26:29;98383.91;;;12.57;66.41
69223;BME280;56514;51.816;-0.026;2022-11-23T11:29:30;98376.41;;;12.68;64.67
69223;BME280;56514;51.816;-0.026;2022-11-23T11:35:13;98400.91;;;12.62;65.18
69223;BME280;56514;51.816;-0.026;2022-11-23T11:40:55;98414.94;;;12.71;63.99
69223;BME280;56514;51.816;-0.026;2022-11-23T11:46:36;98414.69;;;12.80;64.85
69223;BME280;56514;51.816;-0.026;2022-11-23T11:49:32;98422.69;;;13.03;62.74
69223;BME280;56514;51.816;-0.026;2022-11-23T11:52:21;98413.78;;;12.96;62.91
69223;BME280;56514;51.816;-0.026;2022-11-23T11:55:18;98430.53;;;12.88;63.72
69223;BME280;56514;51.816;-0.026;2022-11-23T11:58:10;98420.53;;;12.98;62.96
69223;BME280;56514;51.816;-0.026;2022-11-23T12:01:08;98427.00;;;13.04;62.43
69223;BME280;56514;51.816;-0.026;2022-11-23T12:04:04;98419.06;;;13.04;62.91
69223;BME280;56514;51.816;-0.026;2022-11-23T12:06:55;98437.53;;;13.12;62.88
69223;BME280;56514;51.816;-0.026;2022-11-23T12:09:48;98434.81;;;13.20;61.61
69223;BME280;56514;51.816;-0.026;2022-11-23T12:12:35;98436.22;;;13.30;60.82
69223;BME280;56514;51.816;-0.026;2022-11-23T12:15:28;98440.00;;;13.36;61.47
69223;BME280;56514;51.816;-0.026;2022-11-23T12:33:56;98477.84;;;14.18;59.01
69223;BME280;56514;51.816;-0.026;2022-11-23T12:39:52;98471.56;;;14.20;58.55
69223;BME280;56514;51.816;-0.026;2022-11-23T12:42:41;98480.50;;;14.18;57.62
69223;BME280;56514;51.816;-0.026;2022-11-23T12:48:40;98502.53;;;14.19;57.69
69223;BME280;56514;51.816;-0.026;2022-11-23T12:51:41;98491.47;;;14.15;57.50
69223;BME280;56514;51.816;-0.026;2022-11-23T12:57:41;98508.66;;;14.71;56.86
69223;BME280;56514;51.816;-0.026;2022-11-23T13:00:36;98517.53;;;14.93;55.46
69223;BME280;56514;51.816;-0.026;2022-11-23T13:03:40;98521.72;;;15.73;53.00
69223;BME280;56514;51.816;-0.026;2022-11-23T13:13:14;98527.75;;;17.39;47.74
69223;BME280;56514;51.816;-0.026;2022-11-23T13:19:49;98530.38;;;18.12;46.82
69223;BME280;56514;51.816;-0.026;2022-11-23T13:22:38;98535.31;;;18.67;44.94
69223;BME280;56514;51.816;-0.026;2022-11-23T13:25:28;98537.97;;;18.67;44.43
69223;BME280;56514;51.816;-0.026;2022-11-23T13:28:30;98545.38;;;18.52;45.18
69223;BME280;56514;51.816;-0.026;2022-11-23T13:40:57;98566.53;;;18.34;43.77
69223;BME280;56514;51.816;-0.026;2022-11-23T13:43:42;98584.22;;;18.42;44.13
69223;BME280;56514;51.816;-0.026;2022-11-23T13:46:27;98569.13;;;17.95;44.03
69223;BME280;56514;51.816;-0.026;2022-11-23T13:52:28;98574.69;;;17.87;44.92
69223;BME280;56514;51.816;-0.026;2022-11-23T13:55:20;98584.84;;;17.17;46.00
69223;BME280;56514;51.816;-0.026;2022-11-23T14:01:10;98595.34;;;17.72;46.10
69223;BME280;56514;51.816;-0.026;2022-11-23T14:03:55;98589.13;;;18.58;44.44
69223;BME280;56514;51.816;-0.026;2022-11-23T14:06:46;98585.88;;;19.46;42.50
69223;BME280;56514;51.816;-0.026;2022-11-23T14:09:41;98591.22;;;19.46;41.51
69223;BME280;56514;51.816;-0.026;2022-11-23T14:12:46;98599.41;;;19.51;41.34
69223;BME280;56514;51.816;-0.026;2022-11-23T14:15:34;98608.97;;;19.20;41.55
69223;BME280;56514;51.816;-0.026;2022-11-23T14:18:38;98615.84;;;18.64;42.02
69223;BME280;56514;51.816;-0.026;2022-11-23T14:27:39;98621.41;;;17.70;43.78
69223;BME280;56514;51.816;-0.026;2022-11-23T14:36:34;98626.50;;;16.21;47.47
69223;BME280;56514;51.816;-0.026;2022-11-23T14:40:11;98622.66;;;17.33;45.62
69223;BME280;56514;51.816;-0.026;2022-11-23T14:42:56;98626.03;;;18.15;42.86
69223;BME280;56514;51.816;-0.026;2022-11-23T14:45:41;98636.75;;;18.28;42.06
69223;BME280;56514;51.816;-0.026;2022-11-23T14:48:29;98647.94;;;17.44;42.48
69223;BME280;56514;51.816;-0.026;2022-11-23T14:51:18;98646.88;;;16.14;45.63
69223;BME280;56514;51.816;-0.026;2022-11-23T14:54:07;98663.72;;;15.20;47.91
69223;BME280;56514;51.816;-0.026;2022-11-23T14:56:57;98671.97;;;14.59;49.52
69223;BME280;56514;51.816;-0.026;2022-11-23T14:59:47;98672.78;;;14.14;50.66
69223;BME280;56514;51.816;-0.026;2022-11-23T15:02:35;98664.34;;;13.80;51.80
69223;BME280;56514;51.816;-0.026;2022-11-23T15:05:27;98683.34;;;13.61;53.15
69223;BME280;56514;51.816;-0.026;2022-11-23T15:08:33;98686.38;;;13.50;52.47
69223;BME280;56514;51.816;-0.026;2022-11-23T15:11:26;98702.91;;;13.06;55.14
69223;BME280;56514;51.816;-0.026;2022-11-23T15:14:24;98701.91;;;12.75;56.85
69223;BME280;56514;51.816;-0.026;2022-11-23T15:17:14;98704.25;;;12.54;57.17
69223;BME280;56514;51.816;-0.026;2022-11-23T15:20:00;98715.13;;;12.34;57.75
69223;BME280;56514;51.816;-0.026;2022-11-23T15:22:45;98717.78;;;12.26;58.86
69223;BME280;56514;51.816;-0.026;2022-11-23T15:25:30;98722.66;;;12.05;61.34
69223;BME280;56514;51.816;-0.026;2022-11-23T15:28:24;98723.31;;;11.99;62.20
69223;BME280;56514;51.816;-0.026;2022-11-23T15:31:33;98725.97;;;11.91;63.06
69223;BME280;56514;51.816;-0.026;2022-11-23T15:34:18;98728.59;;;11.99;63.63
69223;BME280;56514;51.816;-0.026;2022-11-23T15:37:04;98729.72;;;11.89;63.97
69223;BME280;56514;51.816;-0.026;2022-11-23T15:39:50;98730.88;;;11.86;64.48
69223;BME280;56514;51.816;-0.026;2022-11-23T15:42:36;98736.50;;;11.83;63.89
69223;BME280;56514;51.816;-0.026;2022-11-23T15:48:38;98743.72;;;11.48;64.95
69223;BME280;56514;51.816;-0.026;2022-11-23T15:51:57;98757.63;;;11.24;65.32
69223;BME280;56514;51.816;-0.026;2022-11-23T15:54:43;98759.53;;;11.14;65.68
69223;BME280;56514;51.816;-0.026;2022-11-23T15:57:29;98760.00;;;11.10;64.89
69223;BME280;56514;51.816;-0.026;2022-11-23T16:00:23;98760.97;;;10.83;66.06
69223;BME280;56514;51.816;-0.026;2022-11-23T16:03:29;98777.00;;;10.90;65.48
69223;BME280;56514;51.816;-0.026;2022-11-23T16:06:16;98790.19;;;10.90;65.26
69223;BME280;56514;51.816;-0.026;2022-11-23T16:09:03;98786.25;;;10.68;66.05
69223;BME280;56514;51.816;-0.026;2022-11-23T16:12:27;98797.66;;;10.59;66.50
69223;BME280;56514;51.816;-0.026;2022-11-23T16:18:22;98803.69;;;10.51;66.47
69223;BME280;56514;51.816;-0.026;2022-11-23T16:21:16;98810.09;;;10.31;66.94
69223;BME280;56514;51.816;-0.026;2022-11-23T16:24:01;98815.22;;;10.33;66.73
69223;BME280;56514;51.816;-0.026;2022-11-23T16:26:46;98814.81;;;10.28;66.65